ADDS METAR Data INFO
IDs: Format: Raw Decoded Include TAF

Data at: 2317 UTC 15 Jul 2018

KLEW 152256Z AUTO 17006KT 10SM OVC090 24/19 A2995 RMK AO2 SLP155 T02390194
KLEW 152156Z AUTO 12006KT 10SM SCT070 24/19 A2994 RMK AO2 SLP152 T02440194
KLEW 152056Z AUTO 15008KT 10SM CLR 25/19 A2994 RMK AO2 SLP151 T02500194 58010
KLEW 151956Z AUTO 19008KT 10SM CLR 25/19 A2995 RMK AO2 SLP154 T02500194
KLEW 151856Z AUTO VRB04KT 10SM SCT017 24/19 A2997 RMK AO2 SLP161 T02390189
KLEW 151842Z AUTO 17009KT 10SM BKN017 24/19 A2996 RMK AO2
KLEW 151834Z AUTO 18008KT 10SM SCT017 24/19 A2997 RMK AO2
KLEW 151756Z AUTO 16008KT 10SM BKN019 23/19 A2998 RMK AO2 SLP164 T02330189 10233 20172 58002
KLEW 151656Z AUTO 07005KT 10SM OVC019 23/18 A3000 RMK AO2 SLP171 T02280183
KLEW 151556Z AUTO VRB03KT 10SM OVC018 23/18 A2998 RMK AO2 LTG DSNT N SLP165 T02280183
KLEW 151456Z AUTO 23003KT 10SM OVC022 22/18 A2998 RMK AO2 SLP167 T02170178 56009
KLEW 151431Z AUTO 00000KT 10SM SCT015 OVC022 21/17 A2998 RMK AO2
KLEW 151356Z AUTO 00000KT 10SM BKN013 OVC022 20/17 A2999 RMK AO2 SLP169 T02000172
KLEW 151256Z AUTO 00000KT 10SM SCT010 OVC024 19/17 A3000 RMK AO2 SLP172 T01890167
KLEW 151234Z AUTO 00000KT 10SM BKN010 OVC024 18/16 A3001 RMK AO2
KLEW 151208Z AUTO 00000KT 10SM SCT006 OVC026 18/16 A3001 RMK AO2
KLEW 151156Z AUTO 00000KT 10SM BKN006 BKN021 OVC026 17/16 A3001 RMK AO2 CIG 005V009 SLP176 T01720161 10172 20144 56003
KLEW 151145Z AUTO 33003KT 10SM OVC006 17/16 A3001 RMK AO2
KLEW 151056Z AUTO 31003KT 10SM OVC004 16/15 A3002 RMK AO2 SLP179 T01610150
KLEW 150956Z AUTO 15003KT 10SM SCT004 OVC022 16/14 A3000 RMK AO2 SLP173 T01560144
KLEW 150856Z AUTO 02003KT 10SM SCT006 OVC022 16/14 A3002 RMK AO2 SLP179 T01560139 56007
KLEW 150848Z AUTO 34003KT 10SM SCT006 OVC022 16/14 A3002 RMK AO2
KLEW 150756Z AUTO 00000KT 10SM OVC026 16/14 A3003 RMK AO2 SLP182 T01560139
KLEW 150711Z AUTO 00000KT 10SM BKN028 14/13 A3002 RMK AO2
KLEW 150656Z AUTO 00000KT 10SM BKN030 14/13 A3003 RMK AO2 SLP182 T01440133
KLEW 150556Z AUTO 00000KT 10SM OVC032 16/14 A3004 RMK AO2 SLP186 60000 T01560139 10156 20150 56014
KLEW 150456Z AUTO 00000KT 10SM OVC032 16/13 A3005 RMK AO2 SLP190 T01560133
KLEW 150356Z AUTO 20003KT 10SM OVC032 16/13 A3006 RMK AO2 SLP194 T01560133 402220111
KLEW 150256Z AUTO 00000KT 10SM OVC034 15/13 A3008 RMK AO2 SLP200 60000 T01500133 50002
KLEW 150156Z AUTO 15003KT 10SM SCT038 BKN080 OVC110 16/13 A3009 RMK AO2 SLP203 T01560133
KLEW 150056Z AUTO 18003KT 10SM OVC038 16/13 A3009 RMK AO2 RAE13 SLP203 P0000 T01560133
KLEW 142356Z AUTO 14005KT 6SM -RA BKN040 BKN049 OVC060 16/13 A3008 RMK AO2 RAB2257E21B37 SLP200 P0000 60000 T01610133 10206 20161 56010
KLEW 142256Z AUTO 17005KT 10SM OVC060 17/14 A3008 RMK AO2 SLP202 T01720139
KLEW 142156Z AUTO 17007KT 10SM OVC065 18/14 A3009 RMK AO2 SLP204 T01780139
KLEW 142056Z AUTO 17007KT 10SM OVC070 18/14 A3011 RMK AO2 SLP210 T01780144 58008
KLEW 141956Z AUTO 15007KT 10SM FEW070 OVC085 18/15 A3011 RMK AO2 SLP212 T01830150
KLEW 141856Z AUTO 15005KT 10SM FEW045 OVC060 19/14 A3013 RMK AO2 SLP217 T01940139
KLEW 141756Z AUTO 16006KT 10SM SCT041 OVC080 21/12 A3013 RMK AO2 SLP217 T02060122 10222 20139 56015
KLEW 141656Z AUTO 17010KT 10SM OVC085 22/13 A3014 RMK AO2 SLP219 T02170133
KLEW 141556Z AUTO 17010KT 10SM BKN095 21/15 A3015 RMK AO2 SLP225 T02110150
KLEW 141456Z AUTO 20007KT 10SM OVC100 20/13 A3017 RMK AO2 SLP232 T02000128 56014
KLEW 141356Z AUTO 19005KT 10SM CLR 18/14 A3018 RMK AO2 SLP233 T01780144
KLEW 141332Z AUTO 16007KT 10SM SCT007 BKN085 17/14 A3019 RMK AO2
KLEW 141310Z AUTO 19007KT 10SM OVC005 16/14 A3020 RMK AO2 CIG 003V009
KLEW 141256Z AUTO 17004KT 10SM OVC003 16/15 A3021 RMK AO2 SLP243 T01560150
KLEW 141207Z AUTO 14004KT 3SM BR OVC003 14/14 A3021 RMK AO2
KLEW 141155Z AUTO 17004KT 1 3/4SM BR OVC003 14/14 A3021 RMK AO2 VIS 1V2 1/2 RAE40 SLP246 P0000 60000 T01390139 10144 20111 56002
KLEW 141154Z AUTO 18004KT 1 3/4SM BR OVC003 14/14 A3021 RMK AO2 RAE40 P0000
KLEW 141144Z AUTO 18005KT 3SM BR OVC003 14/14 A3021 RMK AO2 RAE40 P0000
KLEW 141136Z AUTO 00000KT 1 1/4SM -RA BR OVC003 14/14 A3021 RMK AO2 P0000
KLEW 141119Z AUTO 00000KT 3/4SM -RA BR OVC003 14/14 A3022 RMK AO2 P0000